createdAt,value
2019-05-06T00:01:59.267Z,99.90
2019-05-06T00:04:29.868Z,99.90
2019-05-06T00:06:59.915Z,99.90
2019-05-06T00:09:29.823Z,99.90
2019-05-06T00:12:00.169Z,99.90
2019-05-06T00:14:30.250Z,99.90
2019-05-06T00:16:59.865Z,99.90
2019-05-06T00:19:30.611Z,99.90
2019-05-06T00:22:00.852Z,99.90
2019-05-06T00:24:35.545Z,99.90
2019-05-06T00:27:14.212Z,99.90
2019-05-06T00:29:46.875Z,99.90
2019-05-06T00:32:16.151Z,99.90
2019-05-06T00:34:45.925Z,99.90
2019-05-06T00:37:16.183Z,99.90
2019-05-06T00:39:54.850Z,99.90
2019-05-06T00:42:31.285Z,99.90
2019-05-06T00:45:04.011Z,99.90
2019-05-06T00:47:34.111Z,99.90
2019-05-06T00:50:04.936Z,99.90
2019-05-06T00:52:36.088Z,99.90
2019-05-06T00:55:06.884Z,99.90
2019-05-06T00:57:46.430Z,99.90
2019-05-06T01:00:18.697Z,99.90
2019-05-06T01:02:48.892Z,99.90
2019-05-06T01:05:18.785Z,99.90
2019-05-06T01:07:48.438Z,99.90
2019-05-06T01:10:18.786Z,99.90
2019-05-06T01:13:07.336Z,99.90
2019-05-06T01:15:37.715Z,99.90
2019-05-06T01:18:07.652Z,99.90
2019-05-06T01:20:37.191Z,99.90
2019-05-06T01:23:07.441Z,99.90
2019-05-06T01:25:37.738Z,99.90
2019-05-06T01:28:07.741Z,99.90
2019-05-06T01:30:37.579Z,99.90
2019-05-06T01:33:07.993Z,99.90
2019-05-06T01:35:37.572Z,99.90
2019-05-06T01:38:24.342Z,99.90
2019-05-06T01:41:19.047Z,99.90
2019-05-06T01:43:49.097Z,99.90
2019-05-06T01:46:19.015Z,99.90
2019-05-06T01:48:49.282Z,99.90
2019-05-06T01:51:19.865Z,99.90
2019-05-06T01:53:50.731Z,99.90
2019-05-06T01:56:39.698Z,99.90
2019-05-06T01:59:10.317Z,99.90
2019-05-06T02:01:53.980Z,99.90
2019-05-06T02:04:13.824Z,99.90
2019-05-06T02:06:43.922Z,99.90
2019-05-06T02:09:17.317Z,99.90
2019-05-06T02:11:48.045Z,99.90
2019-05-06T02:14:18.646Z,99.90
2019-05-06T02:16:49.118Z,99.90
2019-05-06T02:19:18.984Z,99.90
2019-05-06T02:21:54.252Z,99.90
2019-05-06T02:24:29.198Z,99.90
2019-05-06T02:26:59.852Z,99.90
2019-05-06T02:29:34.152Z,99.90
2019-05-06T02:32:38.993Z,99.90
2019-05-06T02:35:26.407Z,99.90
2019-05-06T02:37:56.849Z,99.90
2019-05-06T02:40:28.266Z,99.90
2019-05-06T02:42:58.251Z,99.90
2019-05-06T02:45:28.942Z,99.90
2019-05-06T02:48:22.724Z,99.90
2019-05-06T02:50:59.675Z,99.90
2019-05-06T02:53:29.707Z,99.90
2019-05-06T02:55:59.879Z,99.90
2019-05-06T02:58:32.829Z,99.90
2019-05-06T03:01:03.487Z,99.90
2019-05-06T03:03:34.215Z,99.90
2019-05-06T03:06:04.676Z,99.90
2019-05-06T03:08:34.972Z,99.90
2019-05-06T03:11:04.936Z,99.90
2019-05-06T03:13:35.025Z,99.90
2019-05-06T03:16:05.871Z,99.90
2019-05-06T03:18:36.126Z,99.90
2019-05-06T03:21:33.794Z,99.90
2019-05-06T03:24:19.365Z,99.90
2019-05-06T03:26:53.377Z,99.90
2019-05-06T03:29:25.291Z,99.90
2019-05-06T03:31:56.931Z,99.90
2019-05-06T03:34:48.967Z,99.90
2019-05-06T03:36:59.744Z,99.90
2019-05-06T03:39:30.433Z,99.90
2019-05-06T03:42:00.349Z,99.90
2019-05-06T03:44:32.901Z,99.90
2019-05-06T03:47:15.313Z,99.90
2019-05-06T03:49:49.921Z,99.90
2019-05-06T03:52:19.081Z,99.90
2019-05-06T03:54:48.864Z,99.90
2019-05-06T03:57:19.752Z,99.90
2019-05-06T03:59:53.099Z,99.90
2019-05-06T04:02:24.086Z,99.90
2019-05-06T04:04:56.755Z,99.90
2019-05-06T04:07:27.295Z,99.90
2019-05-06T04:09:57.969Z,99.90
2019-05-06T04:12:33.094Z,99.90
2019-05-06T04:15:04.004Z,99.90
2019-05-06T04:17:46.384Z,99.90
2019-05-06T04:20:34.795Z,99.90
2019-05-06T04:23:29.086Z,99.90
2019-05-06T04:26:17.761Z,99.90
2019-05-06T04:28:48.131Z,99.90
2019-05-06T04:31:18.482Z,99.90
2019-05-06T04:34:07.257Z,99.90
2019-05-06T04:36:23.550Z,99.90
2019-05-06T04:38:53.958Z,99.90
2019-05-06T04:41:26.586Z,99.90
2019-05-06T04:43:56.672Z,99.90
2019-05-06T04:46:26.641Z,99.90
2019-05-06T04:48:57.911Z,99.90
2019-05-06T04:51:27.937Z,99.90
2019-05-06T04:53:57.926Z,99.90
2019-05-06T04:56:28.276Z,99.90
2019-05-06T04:58:59.102Z,99.90
2019-05-06T05:01:29.235Z,99.90
2019-05-06T05:03:59.225Z,99.90
2019-05-06T05:06:29.589Z,99.90
2019-05-06T05:09:02.578Z,99.90
2019-05-06T05:11:42.601Z,99.90
2019-05-06T05:14:42.301Z,99.90
2019-05-06T05:17:29.760Z,99.90
2019-05-06T05:19:59.486Z,99.90
2019-05-06T05:22:29.583Z,99.90
2019-05-06T05:25:00.298Z,99.90
2019-05-06T05:27:32.783Z,99.90
2019-05-06T05:30:03.048Z,99.90
2019-05-06T05:32:33.563Z,99.90
2019-05-06T05:35:03.662Z,99.90
2019-05-06T05:37:34.081Z,99.90
2019-05-06T05:40:04.805Z,99.90
2019-05-06T05:42:56.784Z,99.90
2019-05-06T05:45:27.694Z,99.90
2019-05-06T05:47:59.245Z,99.90
2019-05-06T05:50:33.154Z,99.90
2019-05-06T05:53:04.143Z,99.90
2019-05-06T05:55:35.019Z,99.90
2019-05-06T05:58:05.654Z,99.90
2019-05-06T06:00:36.111Z,99.90
2019-05-06T06:03:07.244Z,99.90
2019-05-06T06:05:36.812Z,99.90
2019-05-06T06:08:06.857Z,99.90
2019-05-06T06:11:04.139Z,99.90
2019-05-06T06:13:34.477Z,99.90
2019-05-06T06:16:23.714Z,99.90
2019-05-06T06:19:12.735Z,99.90
2019-05-06T06:21:52.271Z,99.90
2019-05-06T06:24:26.622Z,99.90
2019-05-06T06:26:56.954Z,99.90
2019-05-06T06:29:26.888Z,99.90
2019-05-06T06:32:23.048Z,99.90
2019-05-06T06:35:19.315Z,99.90
2019-05-06T06:38:14.335Z,99.90
2019-05-06T06:40:44.779Z,99.90
2019-05-06T06:43:19.111Z,99.90
2019-05-06T06:45:49.189Z,99.90
2019-05-06T06:48:18.976Z,99.90
2019-05-06T06:50:49.103Z,99.90
2019-05-06T06:53:19.036Z,99.90
2019-05-06T06:55:49.377Z,99.90
2019-05-06T06:58:27.335Z,99.90
2019-05-06T07:01:33.155Z,99.90
2019-05-06T07:04:11.174Z,99.90
2019-05-06T07:06:44.543Z,99.90
2019-05-06T07:09:13.837Z,99.90
2019-05-06T07:11:44.154Z,99.90
2019-05-06T07:14:14.161Z,99.90
2019-05-06T07:16:44.843Z,99.90
2019-05-06T07:19:17.170Z,99.90
2019-05-06T07:21:54.165Z,99.90
2019-05-06T07:24:24.792Z,99.90
2019-05-06T07:26:59.441Z,99.90
2019-05-06T07:29:29.104Z,99.90
2019-05-06T07:31:59.539Z,99.90
2019-05-06T07:34:29.767Z,99.90
2019-05-06T07:37:00.177Z,99.90
2019-05-06T07:39:33.196Z,99.90
2019-05-06T07:42:04.143Z,99.90
2019-05-06T07:44:56.147Z,99.90
2019-05-06T07:47:45.131Z,99.90
2019-05-06T07:50:15.415Z,99.90
2019-05-06T07:53:04.869Z,99.90
2019-05-06T07:55:34.935Z,99.90
2019-05-06T07:58:04.927Z,99.90
2019-05-06T08:00:42.137Z,99.90
2019-05-06T08:03:14.019Z,99.90
2019-05-06T08:05:54.797Z,97.00
2019-05-06T08:08:23.080Z,95.30
2019-05-06T08:10:53.277Z,93.80
2019-05-06T08:13:23.170Z,94.20
2019-05-06T08:15:53.731Z,94.60
2019-05-06T08:18:24.228Z,95.40
2019-05-06T08:20:53.638Z,95.80
2019-05-06T08:23:45.890Z,97.50
2019-05-06T08:26:17.798Z,96.80
2019-05-06T08:28:47.620Z,98.20
2019-05-06T08:31:19.656Z,97.50
2019-05-06T08:33:52.130Z,97.10
2019-05-06T08:36:38.788Z,97.60
2019-05-06T08:39:09.212Z,98.10
2019-05-06T08:41:39.593Z,97.50
2019-05-06T08:44:09.471Z,97.00
2019-05-06T08:46:39.884Z,95.80
2019-05-06T08:49:12.161Z,95.10
2019-05-06T08:52:21.646Z,95.90
2019-05-06T08:54:53.866Z,96.30
2019-05-06T08:57:23.868Z,96.50
2019-05-06T08:59:54.416Z,96.40
2019-05-06T09:02:24.779Z,96.10
2019-05-06T09:04:54.339Z,96.00
2019-05-06T09:07:24.380Z,96.80
2019-05-06T09:09:54.993Z,97.60
2019-05-06T09:12:25.354Z,97.90
2019-05-06T09:14:55.394Z,97.30
2019-05-06T09:17:25.354Z,96.10
2019-05-06T09:19:55.360Z,95.50
2019-05-06T09:22:25.402Z,96.10
2019-05-06T09:24:54.996Z,95.40
2019-05-06T09:27:43.219Z,99.60
2019-05-06T09:30:19.493Z,99.90
2019-05-06T09:32:49.136Z,99.90
2019-05-06T09:35:19.504Z,99.90
2019-05-06T09:37:49.508Z,99.90
2019-05-06T09:40:19.478Z,99.90
2019-05-06T09:42:51.940Z,99.90
2019-05-06T09:45:22.780Z,99.90
2019-05-06T09:48:09.288Z,99.90
2019-05-06T09:50:46.013Z,99.90
2019-05-06T09:53:19.800Z,99.90
2019-05-06T09:56:07.529Z,99.90
2019-05-06T09:58:42.832Z,99.90
2019-05-06T10:01:13.200Z,98.30
2019-05-06T10:03:43.384Z,98.10
2019-05-06T10:06:14.117Z,98.50
2019-05-06T10:08:44.088Z,98.70
2019-05-06T10:11:14.211Z,98.70
2019-05-06T10:13:44.623Z,98.50
2019-05-06T10:16:14.352Z,98.10
2019-05-06T10:18:44.070Z,95.30
2019-05-06T10:21:13.744Z,96.60
2019-05-06T10:23:44.971Z,97.00
2019-05-06T10:26:14.545Z,97.00
2019-05-06T10:28:59.082Z,98.40
2019-05-06T10:31:32.701Z,99.30
2019-05-06T10:34:13.838Z,99.20
2019-05-06T10:36:53.768Z,97.50
2019-05-06T10:39:26.519Z,97.30
2019-05-06T10:42:17.415Z,97.60
2019-05-06T10:45:13.664Z,96.90
2019-05-06T10:47:43.688Z,97.40
2019-05-06T10:50:13.384Z,97.80
2019-05-06T10:53:02.761Z,97.40
2019-05-06T10:55:32.591Z,97.80
2019-05-06T10:58:03.061Z,97.90
2019-05-06T11:00:33.298Z,97.80
2019-05-06T11:03:14.381Z,98.20
2019-05-06T11:05:43.340Z,97.70
2019-05-06T11:08:14.118Z,97.10
2019-05-06T11:10:45.377Z,97.20
2019-05-06T11:13:16.293Z,96.70
2019-05-06T11:15:46.533Z,96.80
2019-05-06T11:18:15.819Z,95.50
2019-05-06T11:20:46.143Z,94.80
2019-05-06T11:23:16.506Z,95.00
2019-05-06T11:25:47.000Z,94.00
2019-05-06T11:28:35.270Z,94.60
2019-05-06T11:31:24.156Z,95.50
2019-05-06T11:34:04.485Z,94.40
2019-05-06T11:36:39.500Z,95.40
2019-05-06T11:39:09.674Z,95.50
2019-05-06T11:41:49.422Z,96.60
2019-05-06T11:44:12.847Z,97.20
2019-05-06T11:46:42.951Z,97.00
2019-05-06T11:49:13.500Z,96.60
2019-05-06T11:51:43.673Z,96.40
2019-05-06T11:54:17.444Z,97.00
2019-05-06T11:56:51.275Z,96.30
2019-05-06T11:59:17.965Z,95.80
2019-05-06T12:01:54.718Z,93.70
2019-05-06T12:04:24.634Z,94.80
2019-05-06T12:07:10.032Z,91.80
2019-05-06T12:09:26.527Z,91.80
2019-05-06T12:11:56.196Z,91.40
2019-05-06T12:14:26.861Z,90.60
2019-05-06T12:16:56.464Z,88.10
2019-05-06T12:19:26.790Z,90.20
2019-05-06T12:21:56.407Z,90.90
2019-05-06T12:24:26.318Z,90.10
2019-05-06T12:26:56.409Z,89.20
2019-05-06T12:29:26.382Z,90.50
2019-05-06T12:32:12.896Z,87.10
2019-05-06T12:34:43.471Z,83.60
2019-05-06T12:37:15.024Z,82.20
2019-05-06T12:39:50.042Z,82.30
2019-05-06T12:42:48.242Z,84.80
2019-05-06T12:45:46.823Z,86.80
2019-05-06T12:48:37.495Z,89.10
2019-05-06T12:51:07.569Z,89.60
2019-05-06T12:53:37.556Z,90.20
2019-05-06T12:56:07.487Z,90.00
2019-05-06T12:58:37.840Z,91.00
2019-05-06T13:01:09.046Z,90.30
2019-05-06T13:03:43.049Z,92.50
2019-05-06T13:06:12.978Z,90.80
2019-05-06T13:08:56.419Z,90.20
2019-05-06T13:11:14.992Z,91.20
2019-05-06T13:13:56.538Z,91.30
2019-05-06T13:16:17.725Z,91.40
2019-05-06T13:18:51.420Z,90.00
2019-05-06T13:21:19.014Z,89.80
2019-05-06T13:23:52.971Z,88.90
2019-05-06T13:26:22.644Z,87.70
2019-05-06T13:28:57.867Z,88.20
2019-05-06T13:31:27.552Z,90.10
2019-05-06T13:34:14.316Z,90.00
2019-05-06T13:36:44.257Z,89.50
2019-05-06T13:39:32.542Z,90.00
2019-05-06T13:41:45.692Z,86.70
2019-05-06T13:44:16.927Z,90.90
2019-05-06T13:46:48.694Z,91.50
2019-05-06T13:49:43.897Z,91.30
2019-05-06T13:52:15.555Z,91.60
2019-05-06T13:54:45.740Z,92.20
2019-05-06T13:57:16.043Z,91.70
2019-05-06T13:59:46.703Z,90.90
2019-05-06T14:02:23.086Z,90.80
2019-05-06T14:04:53.512Z,91.00
2019-05-06T14:07:24.294Z,91.00
2019-05-06T14:09:54.791Z,91.50
2019-05-06T14:12:24.506Z,91.50
2019-05-06T14:14:54.204Z,94.60
2019-05-06T14:17:23.518Z,96.90
2019-05-06T14:19:53.587Z,97.60
2019-05-06T14:22:24.379Z,98.80
2019-05-06T14:25:19.562Z,99.90
2019-05-06T14:27:53.314Z,99.90
2019-05-06T14:30:42.909Z,99.90
2019-05-06T14:33:15.545Z,99.90
2019-05-06T14:35:46.724Z,99.90
2019-05-06T14:38:18.039Z,99.90
2019-05-06T14:41:07.929Z,99.90
2019-05-06T14:43:38.835Z,99.90
2019-05-06T14:46:09.547Z,99.90
2019-05-06T14:48:38.886Z,99.90
2019-05-06T14:51:08.960Z,99.90
2019-05-06T14:53:39.300Z,99.90
2019-05-06T14:56:22.647Z,99.90
2019-05-06T14:59:08.850Z,99.90
2019-05-06T15:01:43.989Z,99.90
2019-05-06T15:04:13.051Z,99.90
2019-05-06T15:06:43.379Z,99.90
2019-05-06T15:09:14.060Z,99.90
2019-05-06T15:11:44.505Z,99.80
2019-05-06T15:14:14.749Z,99.70
2019-05-06T15:16:44.995Z,99.90
2019-05-06T15:19:15.141Z,99.10
2019-05-06T15:21:45.558Z,99.40
2019-05-06T15:24:16.260Z,98.80
2019-05-06T15:26:45.867Z,99.10
2019-05-06T15:29:15.918Z,97.80
2019-05-06T15:32:07.622Z,97.70
2019-05-06T15:34:56.423Z,98.30
2019-05-06T15:37:33.871Z,96.60
2019-05-06T15:40:03.763Z,97.10
2019-05-06T15:42:34.302Z,96.80
2019-05-06T15:45:04.866Z,96.00
2019-05-06T15:47:35.716Z,95.90
2019-05-06T15:50:06.539Z,94.50
2019-05-06T15:52:37.325Z,95.20
2019-05-06T15:55:07.668Z,93.20
2019-05-06T15:57:37.793Z,92.90
2019-05-06T16:00:08.525Z,93.70
2019-05-06T16:02:38.554Z,92.30
2019-05-06T16:05:13.863Z,93.50
2019-05-06T16:07:43.372Z,93.00
2019-05-06T16:10:13.833Z,93.40
2019-05-06T16:12:48.880Z,92.80
2019-05-06T16:15:19.406Z,94.00
2019-05-06T16:17:49.817Z,93.90
2019-05-06T16:20:22.061Z,92.90
2019-05-06T16:22:56.999Z,93.20
2019-05-06T16:25:27.323Z,92.00
2019-05-06T16:27:57.777Z,92.50
2019-05-06T16:30:27.898Z,93.10
2019-05-06T16:32:58.567Z,93.10
2019-05-06T16:35:29.313Z,93.40
2019-05-06T16:37:59.839Z,93.80
2019-05-06T16:40:30.003Z,93.80
2019-05-06T16:43:02.025Z,94.20
2019-05-06T16:45:32.908Z,94.40
2019-05-06T16:48:03.682Z,94.20
2019-05-06T16:50:35.277Z,94.90
2019-05-06T16:53:05.405Z,94.50
2019-05-06T16:56:02.260Z,94.00
2019-05-06T16:58:35.713Z,94.00
2019-05-06T17:01:06.388Z,93.80
2019-05-06T17:03:47.826Z,93.60
2019-05-06T17:06:20.249Z,94.30
2019-05-06T17:08:52.690Z,95.70
2019-05-06T17:11:27.943Z,95.90
2019-05-06T17:13:54.601Z,96.60
2019-05-06T17:16:24.769Z,96.30
2019-05-06T17:18:56.754Z,96.90
2019-05-06T17:21:26.862Z,96.40
2019-05-06T17:23:56.918Z,96.80
2019-05-06T17:26:27.333Z,96.80
2019-05-06T17:29:06.170Z,98.00
2019-05-06T17:31:54.207Z,98.80
2019-05-06T17:34:28.163Z,99.00
2019-05-06T17:37:03.037Z,98.70
2019-05-06T17:39:33.485Z,99.20
2019-05-06T17:42:03.710Z,99.00
2019-05-06T17:44:34.634Z,98.60
2019-05-06T17:47:14.271Z,99.40
2019-05-06T17:49:45.078Z,98.80
2019-05-06T17:52:22.178Z,98.10
2019-05-06T17:54:52.796Z,98.70
2019-05-06T17:57:22.665Z,99.20
2019-05-06T17:59:53.064Z,99.70
2019-05-06T18:02:24.848Z,99.90
2019-05-06T18:04:55.325Z,99.90
2019-05-06T18:07:25.386Z,99.20
2019-05-06T18:09:55.793Z,99.70
2019-05-06T18:12:26.505Z,99.80
2019-05-06T18:14:56.223Z,99.90
2019-05-06T18:17:26.323Z,99.90
2019-05-06T18:19:56.616Z,99.90
2019-05-06T18:22:27.335Z,99.90
2019-05-06T18:24:56.971Z,99.90
2019-05-06T18:27:27.938Z,99.90
2019-05-06T18:30:11.432Z,99.90
2019-05-06T18:32:30.220Z,99.90
2019-05-06T18:35:02.687Z,99.90
2019-05-06T18:37:33.117Z,99.90
2019-05-06T18:40:03.476Z,99.90
2019-05-06T18:42:33.492Z,99.90
2019-05-06T18:45:03.483Z,99.90
2019-05-06T18:47:34.135Z,99.90
2019-05-06T18:50:04.460Z,99.90
2019-05-06T18:52:34.618Z,99.90
2019-05-06T18:55:04.290Z,99.90
2019-05-06T18:57:34.403Z,99.90
2019-05-06T19:00:05.193Z,99.90
2019-05-06T19:02:35.974Z,99.90
2019-05-06T19:05:14.731Z,99.90
2019-05-06T19:07:46.905Z,99.90
2019-05-06T19:10:26.328Z,99.90
2019-05-06T19:12:56.749Z,99.90
2019-05-06T19:15:26.962Z,99.90
2019-05-06T19:17:56.683Z,99.90
2019-05-06T19:20:26.364Z,99.90
2019-05-06T19:22:56.715Z,99.90
2019-05-06T19:25:27.121Z,99.90
2019-05-06T19:27:56.839Z,99.90
2019-05-06T19:30:27.565Z,99.60
2019-05-06T19:32:57.290Z,99.40
2019-05-06T19:35:27.485Z,99.20
2019-05-06T19:37:57.888Z,98.80
2019-05-06T19:40:28.348Z,98.40
2019-05-06T19:42:58.676Z,98.40
2019-05-06T19:45:29.467Z,98.50
2019-05-06T19:48:00.071Z,98.50
2019-05-06T19:50:30.269Z,98.90
2019-05-06T19:53:00.391Z,99.10
2019-05-06T19:55:29.695Z,98.90
2019-05-06T19:58:02.196Z,99.50
2019-05-06T20:00:32.634Z,99.90
2019-05-06T20:03:02.825Z,99.90
2019-05-06T20:06:02.352Z,99.90
2019-05-06T20:08:42.401Z,99.90
2019-05-06T20:11:22.616Z,99.90
2019-05-06T20:13:53.005Z,99.90
2019-05-06T20:16:23.468Z,99.90
2019-05-06T20:18:54.024Z,99.90
2019-05-06T20:21:24.398Z,99.90
2019-05-06T20:23:55.068Z,99.90
2019-05-06T20:26:25.527Z,99.90
2019-05-06T20:28:55.175Z,99.90
2019-05-06T20:31:25.516Z,99.90
2019-05-06T20:33:55.205Z,99.90
2019-05-06T20:36:25.354Z,99.90
2019-05-06T20:38:55.218Z,99.90
2019-05-06T20:41:25.283Z,99.90
2019-05-06T20:43:55.021Z,99.90
2019-05-06T20:46:25.474Z,99.90
2019-05-06T20:48:55.763Z,99.90
2019-05-06T20:51:25.441Z,99.90
2019-05-06T20:53:56.212Z,99.90
2019-05-06T20:56:26.983Z,99.90
2019-05-06T20:58:56.835Z,99.90
2019-05-06T21:01:26.823Z,99.90
2019-05-06T21:03:57.482Z,99.90
2019-05-06T21:06:27.585Z,99.90
2019-05-06T21:08:58.017Z,99.90
2019-05-06T21:11:29.261Z,99.90
2019-05-06T21:13:59.496Z,99.90
2019-05-06T21:16:31.899Z,99.90
2019-05-06T21:19:03.195Z,99.90
2019-05-06T21:21:32.964Z,99.90
2019-05-06T21:24:03.058Z,99.90
2019-05-06T21:26:33.146Z,99.90
2019-05-06T21:29:03.373Z,99.90
2019-05-06T21:31:33.840Z,99.90
2019-05-06T21:34:03.922Z,99.90
2019-05-06T21:36:34.339Z,99.90
2019-05-06T21:39:06.316Z,99.90
2019-05-06T21:41:35.964Z,99.90
2019-05-06T21:44:06.035Z,99.90
2019-05-06T21:46:36.205Z,99.90
2019-05-06T21:49:06.541Z,99.90
2019-05-06T21:51:36.181Z,99.90
2019-05-06T21:54:06.109Z,99.90
2019-05-06T21:56:36.392Z,99.90
2019-05-06T21:59:07.070Z,99.90
2019-05-06T22:01:37.583Z,99.90
2019-05-06T22:04:08.131Z,99.90
2019-05-06T22:06:38.098Z,99.90
2019-05-06T22:09:08.090Z,99.90
2019-05-06T22:11:37.663Z,99.90
2019-05-06T22:14:08.072Z,99.90
2019-05-06T22:16:37.691Z,99.90
2019-05-06T22:19:08.007Z,99.90
2019-05-06T22:21:39.479Z,99.90
2019-05-06T22:24:09.173Z,99.90
2019-05-06T22:26:39.500Z,99.90
2019-05-06T22:29:09.520Z,99.90
2019-05-06T22:31:39.831Z,99.90
2019-05-06T22:34:10.476Z,99.90
2019-05-06T22:36:40.167Z,99.90
2019-05-06T22:39:12.044Z,99.90
2019-05-06T22:41:43.912Z,99.90
2019-05-06T22:44:14.317Z,99.90
2019-05-06T22:46:45.054Z,99.90
2019-05-06T22:49:15.279Z,99.90
2019-05-06T22:51:45.902Z,99.90
2019-05-06T22:54:15.928Z,99.90
2019-05-06T22:56:46.595Z,99.90
2019-05-06T22:59:17.312Z,99.90
2019-05-06T23:02:13.140Z,99.90
2019-05-06T23:04:44.019Z,99.90
2019-05-06T23:07:14.366Z,99.90
2019-05-06T23:09:44.700Z,99.90
2019-05-06T23:12:14.768Z,99.90
2019-05-06T23:14:44.837Z,99.90
2019-05-06T23:17:14.753Z,99.90
2019-05-06T23:19:45.154Z,99.90
2019-05-06T23:22:15.095Z,99.90
2019-05-06T23:24:45.101Z,99.90
2019-05-06T23:27:15.340Z,99.90
2019-05-06T23:29:45.119Z,99.90
2019-05-06T23:32:15.576Z,99.90
2019-05-06T23:34:45.517Z,99.90
2019-05-06T23:37:23.286Z,99.90
2019-05-06T23:40:33.219Z,99.90
2019-05-06T23:43:38.664Z,99.90
2019-05-06T23:46:45.382Z,99.90
2019-05-06T23:49:52.681Z,99.90
2019-05-06T23:52:58.452Z,99.90
2019-05-06T23:56:03.666Z,99.90
2019-05-06T23:58:33.670Z,99.90
